Wick, Iowa
Current Conditions -  °F | °C
As of 10:15 AM on Thursday 18 Dec 2014 (Local Time) from KI75 Reporting Station
Light Snow Light Snow  
Wind Chill: 26°   Ceiling: 3200
Heat Index: 26°   Visibility: 3mi
Dew Point: 23°   Wind: 0mph
Humidity: 89%   Direction: NA
Pressure: 30.27"   Gusts: NA
Location:  41.2933°N, 93.7977°W
Report Text: KI75 181615Z AUTO 00000KT 3SM -SN SCT007 OVC032 M04/M05 A3027 RMK AO2 T10361052
Loading
Personal Weather Stations






























Interactive Weather Map New forecast layout! Learn more

10-Day Weather Forecast

Advertisements
Track Severe Weather on mobile